Airport Name : Brandon Muni

Other Name : Brandon Muni

ICAO : CYBR

IATA : YBR

FAA :

Latitude : 49.91

Longitude : -99.951944

Country : Canada

Local Date and Time : 4/25/2018 11:06:00 PM

 

TAF (Terminal Aerodrome Forecast)

TAF CYBR 252344Z 2600/2612 36015G25KT P6SM SCT100 BKN240 TEMPO 2600/2605 BKN100 OVC240 FM260500 36012KT P6SM SKC RMK NXT FCST BY 260600Z

 

METAR (METeorological Aerodrome Report)

CYBR 260300Z 02011KT 15SM SCT110 BKN250 10/M00 A2990 RMK AC4CI2 SLP139

CYBR 260200Z 02015G20KT 15SM FEW086 SCT180 BKN250 11/00 A2985 RMK AC2AC2CI2 SLP124

CYBR 260100Z 02015G25KT 15SM FEW080 OVC250 13/00 A2981 RMK AC1CI7 SLP108 DENSITY ALT 1600FT